createdAt,value
2022-08-25T00:00:47.492Z,100188.66
2022-08-25T00:04:15.574Z,100187.34
2022-08-25T00:05:21.552Z,100182.66
2022-08-25T00:06:10.751Z,100184.59
2022-08-25T00:09:51.567Z,100184.09
2022-08-25T00:11:03.543Z,100185.19
2022-08-25T00:12:16.033Z,100185.19
2022-08-25T00:13:16.452Z,100184.69
2022-08-25T00:14:04.123Z,100181.13
2022-08-25T00:14:54.644Z,100181.13
2022-08-25T00:15:49.465Z,100185.00
2022-08-25T00:16:48.182Z,100185.00
2022-08-25T00:17:39.365Z,100184.47
2022-08-25T00:18:43.009Z,100188.03
2022-08-25T00:19:43.853Z,100183.69
2022-08-25T00:20:31.199Z,100184.47
2022-08-25T00:21:19.749Z,100184.81
2022-08-25T00:22:09.254Z,100194.66
2022-08-25T00:22:54.744Z,100190.28
2022-08-25T00:23:46.675Z,100184.81
2022-08-25T00:25:46.778Z,100183.19
2022-08-25T00:30:00.870Z,100192.00
2022-08-25T00:30:54.398Z,100192.00
2022-08-25T00:31:47.158Z,100184.59
2022-08-25T00:35:39.941Z,100185.72
2022-08-25T00:36:37.038Z,100186.53
2022-08-25T00:37:32.141Z,100189.28
2022-08-25T00:38:20.208Z,100189.28
2022-08-25T00:39:08.956Z,100180.25
2022-08-25T00:39:59.410Z,100189.56
2022-08-25T00:40:57.459Z,100186.03
2022-08-25T00:42:49.679Z,100189.56
2022-08-25T00:43:42.707Z,100190.69
2022-08-25T00:44:31.360Z,100189.88
2022-08-25T00:45:22.871Z,100186.63
2022-08-25T00:46:08.775Z,100192.09
2022-08-25T00:46:56.911Z,100183.38
2022-08-25T00:47:54.559Z,100189.66
2022-08-25T00:49:53.367Z,100189.38
2022-08-25T00:50:44.099Z,100191.00
2022-08-25T00:51:37.660Z,100187.75
2022-08-25T00:52:26.610Z,100189.38
2022-08-25T00:53:19.969Z,100190.19
2022-08-25T00:55:29.384Z,100190.19
2022-08-25T00:56:17.177Z,100186.63
2022-08-25T00:57:06.351Z,100185.00
2022-08-25T00:57:53.163Z,100189.38
2022-08-25T00:59:39.371Z,100191.00
2022-08-25T01:00:33.970Z,100187.44
2022-08-25T01:01:24.047Z,100190.19
2022-08-25T01:02:13.666Z,100193.72
2022-08-25T01:02:57.872Z,100191.00
2022-08-25T01:04:34.717Z,100193.72
2022-08-25T01:05:21.977Z,100193.72
2022-08-25T01:06:09.124Z,100188.25
2022-08-25T01:07:05.204Z,100185.50
2022-08-25T01:08:47.727Z,100188.25
2022-08-25T01:09:47.986Z,100186.31
2022-08-25T01:10:38.186Z,100182.25
2022-08-25T01:12:29.577Z,100181.97
2022-08-25T01:13:22.314Z,100179.22
2022-08-25T01:14:08.714Z,100181.97
2022-08-25T01:14:56.680Z,100181.16
2022-08-25T01:15:41.808Z,100175.66
2022-08-25T01:16:30.336Z,100182.78
2022-08-25T01:17:16.052Z,100181.16
2022-08-25T01:18:02.569Z,100186.63
2022-08-25T01:18:55.688Z,100183.06
2022-08-25T01:19:36.646Z,100177.59
2022-08-25T01:20:20.274Z,100181.97
2022-08-25T01:22:10.208Z,100176.78
2022-08-25T01:24:58.463Z,100190.47
2022-08-25T01:25:56.474Z,100185.81
2022-08-25T01:26:51.334Z,100185.00
2022-08-25T01:27:44.321Z,100182.25
2022-08-25T01:28:27.834Z,100185.00
2022-08-25T01:29:15.962Z,100187.75
2022-08-25T01:30:03.843Z,100182.25
2022-08-25T01:30:53.020Z,100189.66
2022-08-25T01:31:39.828Z,100186.13
2022-08-25T01:32:26.238Z,100186.94
2022-08-25T01:33:08.969Z,100190.47
2022-08-25T01:33:54.297Z,100188.84
2022-08-25T01:34:46.400Z,100179.53
2022-08-25T01:35:32.094Z,100185.81
2022-08-25T01:36:18.976Z,100184.19
2022-08-25T01:37:09.318Z,100187.75
2022-08-25T01:38:01.804Z,100186.94
2022-08-25T01:41:43.011Z,100188.03
2022-08-25T01:42:27.642Z,100183.38
2022-08-25T01:43:21.905Z,100189.66
2022-08-25T01:44:31.290Z,100188.84
2022-08-25T01:45:31.134Z,100192.69
2022-08-25T01:46:32.378Z,100186.13
2022-08-25T01:47:30.019Z,100181.75
2022-08-25T01:48:24.851Z,100184.50
2022-08-25T01:49:14.360Z,100179.81
2022-08-25T01:50:11.831Z,100181.75
2022-08-25T01:50:58.094Z,100178.19
2022-08-25T01:51:44.270Z,100184.50
2022-08-25T01:52:36.407Z,100185.59
2022-08-25T01:53:27.570Z,100180.94
2022-08-25T01:54:22.310Z,100189.16
2022-08-25T01:55:06.927Z,100182.88
2022-08-25T01:56:54.969Z,100182.88
2022-08-25T02:01:02.582Z,100185.59
2022-08-25T02:02:08.503Z,100185.59
2022-08-25T02:03:05.872Z,100185.59
2022-08-25T02:04:07.573Z,100182.34
2022-08-25T02:05:05.105Z,100187.81
2022-08-25T02:05:52.749Z,100177.69
2022-08-25T02:06:40.676Z,100183.16
2022-08-25T02:07:28.726Z,100183.16
2022-08-25T02:08:23.834Z,100179.63
2022-08-25T02:09:19.760Z,100185.09
2022-08-25T02:10:11.124Z,100183.16
2022-08-25T02:11:17.616Z,100183.16
2022-08-25T02:12:05.886Z,100177.69
2022-08-25T02:12:58.390Z,100185.09
2022-08-25T02:14:03.068Z,100180.44
2022-08-25T02:14:59.257Z,100183.97
2022-08-25T02:16:57.756Z,100183.97
2022-08-25T02:17:57.665Z,100178.00
2022-08-25T02:20:08.371Z,100178.00
2022-08-25T02:21:05.993Z,100179.63
2022-08-25T02:22:07.993Z,100174.13
2022-08-25T02:23:58.471Z,100177.69
2022-08-25T02:24:54.641Z,100176.56
2022-08-25T02:25:48.292Z,100177.69
2022-08-25T02:26:34.450Z,100174.13
2022-08-25T02:27:20.007Z,100176.88
2022-08-25T02:28:07.321Z,100179.31
2022-08-25T02:28:57.071Z,100176.06
2022-08-25T02:29:42.378Z,100176.88
2022-08-25T02:30:27.457Z,100177.69
2022-08-25T02:31:13.687Z,100177.69
2022-08-25T02:32:01.948Z,100179.63
2022-08-25T02:32:51.029Z,100177.69
2022-08-25T02:33:44.512Z,100176.06
2022-08-25T02:36:34.873Z,100170.59
2022-08-25T02:37:22.460Z,100174.44
2022-08-25T02:38:07.351Z,100171.41
2022-08-25T02:38:57.540Z,100172.50
2022-08-25T02:39:44.450Z,100167.03
2022-08-25T02:40:36.695Z,100172.50
2022-08-25T02:41:31.023Z,100172.50
2022-08-25T02:42:17.743Z,100167.84
2022-08-25T02:43:13.470Z,100167.03
2022-08-25T02:44:09.701Z,100166.22
2022-08-25T02:45:11.032Z,100169.78
2022-08-25T02:46:02.833Z,100167.84
2022-08-25T02:46:56.139Z,100164.31
2022-08-25T02:47:43.957Z,100174.44
2022-08-25T02:48:31.280Z,100177.19
2022-08-25T02:49:14.869Z,100173.31
2022-08-25T02:50:07.714Z,100168.97
2022-08-25T02:50:53.605Z,100171.69
2022-08-25T02:51:40.272Z,100164.31
2022-08-25T02:52:26.450Z,100169.78
2022-08-25T02:53:16.661Z,100170.59
2022-08-25T02:54:05.397Z,100169.78
2022-08-25T02:54:55.379Z,100169.78
2022-08-25T02:55:38.095Z,100167.03
2022-08-25T02:56:43.452Z,100174.44
2022-08-25T02:58:35.031Z,100169.25
2022-08-25T03:01:49.189Z,100170.06
2022-08-25T03:02:47.933Z,100170.88
2022-08-25T03:03:42.241Z,100168.16
2022-08-25T03:04:36.783Z,100168.97
2022-08-25T03:05:34.824Z,100166.53
2022-08-25T03:06:28.729Z,100167.34
2022-08-25T03:07:19.386Z,100168.16
2022-08-25T03:08:07.979Z,100161.06
2022-08-25T03:08:55.557Z,100163.78
2022-08-25T03:09:41.637Z,100160.25
2022-08-25T03:10:26.841Z,100165.41
2022-08-25T03:11:10.319Z,100161.06
2022-08-25T03:11:56.161Z,100159.13
2022-08-25T03:12:38.401Z,100167.34
2022-08-25T03:13:29.452Z,100163.78
2022-08-25T03:14:19.058Z,100160.25
2022-08-25T03:15:12.774Z,100157.19
2022-08-25T03:16:55.502Z,100162.69
2022-08-25T03:17:47.461Z,100159.94
2022-08-25T03:18:37.355Z,100161.88
2022-08-25T03:19:32.364Z,100166.53
2022-08-25T03:20:16.138Z,100159.94
2022-08-25T03:21:02.806Z,100161.88
2022-08-25T03:21:50.610Z,100161.06
2022-08-25T03:23:28.575Z,100159.13
2022-08-25T03:24:31.361Z,100163.78
2022-08-25T03:25:26.304Z,100161.88
2022-08-25T03:27:17.060Z,100155.88
2022-08-25T03:27:53.797Z,100152.31
2022-08-25T03:28:30.441Z,100153.13
2022-08-25T03:29:06.975Z,100150.69
2022-08-25T03:29:42.504Z,100146.03
2022-08-25T03:30:19.343Z,100149.59
2022-08-25T03:30:56.722Z,100152.31
2022-08-25T03:31:33.622Z,100152.31
2022-08-25T03:32:10.717Z,100149.06
2022-08-25T03:32:47.320Z,100147.97
2022-08-25T03:33:23.629Z,100145.22
2022-08-25T03:34:01.025Z,100147.97
2022-08-25T03:34:37.688Z,100144.41
2022-08-25T03:35:13.313Z,100146.03
2022-08-25T03:35:50.828Z,100138.13
2022-08-25T03:36:27.598Z,100145.22
2022-08-25T03:37:04.985Z,100141.69
2022-08-25T03:37:41.407Z,100134.28
2022-08-25T03:38:18.355Z,100140.88
2022-08-25T03:38:55.500Z,100134.28
2022-08-25T03:39:32.655Z,100135.09
2022-08-25T03:40:08.684Z,100134.28
2022-08-25T03:40:51.192Z,100133.47
2022-08-25T03:41:29.371Z,100133.47
2022-08-25T03:42:10.289Z,100139.75
2022-08-25T03:42:52.454Z,100136.19
2022-08-25T03:43:33.578Z,100134.28
2022-08-25T03:44:13.390Z,100137.00
2022-08-25T03:44:53.019Z,100133.47
2022-08-25T03:45:29.459Z,100129.91
2022-08-25T03:46:06.143Z,100131.84
2022-08-25T03:46:43.197Z,100132.66
2022-08-25T03:47:19.644Z,100126.38
2022-08-25T03:47:57.049Z,100129.91
2022-08-25T03:48:33.286Z,100136.19
2022-08-25T03:49:09.662Z,100131.84
2022-08-25T03:49:46.172Z,100127.19
2022-08-25T03:50:21.857Z,100132.66
2022-08-25T03:50:57.431Z,100138.13
2022-08-25T03:51:33.856Z,100131.53
2022-08-25T03:52:15.824Z,100137.81
2022-08-25T03:52:56.068Z,100131.53
2022-08-25T03:53:32.941Z,100130.44
2022-08-25T03:54:09.745Z,100135.09
2022-08-25T03:54:46.274Z,100139.75
2022-08-25T03:55:23.037Z,100138.13
2022-08-25T03:55:58.546Z,100139.75
2022-08-25T03:56:34.671Z,100144.41
2022-08-25T03:57:10.608Z,100148.28
2022-08-25T03:57:46.883Z,100141.16
2022-08-25T03:58:24.333Z,100148.28
2022-08-25T03:59:01.044Z,100135.69
2022-08-25T03:59:38.003Z,100147.44
2022-08-25T04:00:14.652Z,100143.91
2022-08-25T04:00:51.206Z,100138.13
2022-08-25T04:01:27.829Z,100139.25
2022-08-25T04:02:03.480Z,100145.81
2022-08-25T04:02:40.811Z,100140.34
2022-08-25T04:03:19.300Z,100136.81
2022-08-25T04:03:59.465Z,100137.63
2022-08-25T04:04:42.089Z,100134.06
2022-08-25T04:05:23.946Z,100143.09
2022-08-25T04:06:03.001Z,100137.63
2022-08-25T04:06:39.347Z,100142.59
2022-08-25T04:07:15.748Z,100143.09
2022-08-25T04:07:51.941Z,100136.81
2022-08-25T04:08:29.470Z,100144.19
2022-08-25T04:09:06.740Z,100141.47
2022-08-25T04:09:44.015Z,100142.28
2022-08-25T04:10:20.913Z,100139.53
2022-08-25T04:10:58.066Z,100143.91
2022-08-25T04:11:34.762Z,100139.53
2022-08-25T04:12:11.163Z,100140.34
2022-08-25T04:12:47.268Z,100136.81
2022-08-25T04:13:23.461Z,100139.53
2022-08-25T04:14:00.728Z,100139.53
2022-08-25T04:14:38.333Z,100134.38
2022-08-25T04:15:14.574Z,100141.16
2022-08-25T04:15:51.851Z,100135.69
2022-08-25T04:16:32.221Z,100132.13
2022-08-25T04:17:11.068Z,100133.25
2022-08-25T04:17:52.815Z,100133.25
2022-08-25T04:18:29.712Z,100139.53
2022-08-25T04:19:06.733Z,100131.34
2022-08-25T04:19:43.988Z,100131.34
2022-08-25T04:20:20.427Z,100130.81
2022-08-25T04:20:57.331Z,100141.47
2022-08-25T04:21:34.001Z,100139.84
2022-08-25T04:22:11.095Z,100141.47
2022-08-25T04:22:48.694Z,100136.00
2022-08-25T04:23:24.837Z,100140.34
2022-08-25T04:24:01.944Z,100142.59
2022-08-25T04:24:39.191Z,100142.28
2022-08-25T04:25:16.231Z,100136.81
2022-08-25T04:25:52.756Z,100136.00
2022-08-25T04:26:29.919Z,100136.81
2022-08-25T04:27:06.111Z,100142.28
2022-08-25T04:27:42.269Z,100145.81
2022-08-25T04:28:18.931Z,100146.66
2022-08-25T04:28:56.643Z,100137.63
2022-08-25T04:29:36.797Z,100145.81
2022-08-25T04:30:18.832Z,100136.00
2022-08-25T04:30:55.511Z,100134.88
2022-08-25T04:31:35.382Z,100134.88
2022-08-25T04:32:16.454Z,100137.63
2022-08-25T04:32:57.530Z,100128.28
2022-08-25T04:33:37.606Z,100133.75
2022-08-25T04:34:28.569Z,100136.50
2022-08-25T04:35:08.280Z,100124.75
2022-08-25T04:35:49.660Z,100124.75
2022-08-25T04:36:29.002Z,100121.19
2022-08-25T04:37:05.793Z,100126.38
2022-08-25T04:37:42.592Z,100120.88
2022-08-25T04:38:18.886Z,100114.59
2022-08-25T04:38:55.768Z,100122.81
2022-08-25T04:39:31.786Z,100119.25
2022-08-25T04:40:08.637Z,100123.13
2022-08-25T04:40:45.248Z,100119.25
2022-08-25T04:41:21.684Z,100120.06
2022-08-25T04:41:58.304Z,100115.72
2022-08-25T04:42:34.836Z,100116.81
2022-08-25T04:43:11.532Z,100118.75
2022-08-25T04:43:47.811Z,100120.69
2022-08-25T04:44:24.187Z,100122.59
2022-08-25T04:45:00.678Z,100121.50
2022-08-25T04:45:39.504Z,100120.97
2022-08-25T04:46:20.787Z,100127.78
2022-08-25T04:46:58.761Z,100122.59
2022-08-25T04:47:36.602Z,100122.59
2022-08-25T04:48:18.189Z,100122.59
2022-08-25T04:48:58.264Z,100119.88
2022-08-25T04:49:37.248Z,100121.78
2022-08-25T04:50:19.543Z,100126.47
2022-08-25T04:51:01.769Z,100120.97
2022-08-25T04:51:50.260Z,100124.53
2022-08-25T04:52:31.837Z,100125.34
2022-08-25T04:53:14.130Z,100110.03
2022-08-25T04:53:55.461Z,100115.50
2022-08-25T04:54:37.232Z,100116.81
2022-08-25T04:55:13.902Z,100109.72
2022-08-25T04:55:51.164Z,100120.38
2022-08-25T04:56:28.227Z,100116.81
2022-08-25T04:57:04.901Z,100114.09
2022-08-25T04:57:41.318Z,100108.91
2022-08-25T04:58:17.481Z,100116.81
2022-08-25T04:58:52.719Z,100109.72
2022-08-25T04:59:30.438Z,100118.75
2022-08-25T05:00:05.800Z,100120.69
2022-08-25T05:00:42.572Z,100119.06
2022-08-25T05:01:19.935Z,100119.88
2022-08-25T05:01:56.983Z,100120.69
2022-08-25T05:02:34.036Z,100117.63
2022-08-25T05:03:10.590Z,100123.13
2022-08-25T05:03:47.375Z,100114.91
2022-08-25T05:04:28.370Z,100117.63
2022-08-25T05:05:08.031Z,100114.09
2022-08-25T05:05:51.400Z,100115.72
2022-08-25T05:06:33.459Z,100108.31
2022-08-25T05:07:16.754Z,100118.44
2022-08-25T05:07:59.416Z,100118.44
2022-08-25T05:08:37.987Z,100118.44
2022-08-25T05:09:14.781Z,100122.31
2022-08-25T05:09:58.614Z,100123.94
2022-08-25T05:10:34.733Z,100123.94
2022-08-25T05:11:10.517Z,100127.47
2022-08-25T05:11:46.868Z,100123.94
2022-08-25T05:12:23.945Z,100123.13
2022-08-25T05:13:00.927Z,100131.03
2022-08-25T05:13:37.137Z,100125.84
2022-08-25T05:14:13.496Z,100132.13
2022-08-25T05:14:49.567Z,100122.81
2022-08-25T05:15:26.129Z,100129.41
2022-08-25T05:16:02.785Z,100129.41
2022-08-25T05:16:39.398Z,100129.41
2022-08-25T05:17:16.205Z,100132.13
2022-08-25T05:17:55.977Z,100135.69
2022-08-25T05:18:32.190Z,100136.50
2022-08-25T05:19:08.708Z,100130.22
2022-08-25T05:19:44.874Z,100130.22
2022-08-25T05:20:21.698Z,100131.03
2022-08-25T05:20:58.765Z,100132.94
2022-08-25T05:21:35.798Z,100132.94
2022-08-25T05:22:12.188Z,100121.69
2022-08-25T05:22:49.305Z,100122.81
2022-08-25T05:23:29.239Z,100130.22
2022-08-25T05:24:10.554Z,100129.09
2022-08-25T05:24:51.908Z,100131.03
2022-08-25T05:25:34.170Z,100129.09
2022-08-25T05:26:16.534Z,100126.38
2022-08-25T05:26:58.855Z,100128.28
2022-08-25T05:27:41.273Z,100128.28
2022-08-25T05:28:25.286Z,100138.13
2022-08-25T05:29:08.547Z,100123.94
2022-08-25T05:29:47.339Z,100131.03
2022-08-25T05:30:23.383Z,100134.56
2022-08-25T05:30:59.620Z,100131.03
2022-08-25T05:31:40.998Z,100131.03
2022-08-25T05:32:18.310Z,100138.13
2022-08-25T05:32:55.294Z,100129.41
2022-08-25T05:33:32.883Z,100135.69
2022-08-25T05:34:08.652Z,100129.09
2022-08-25T05:34:44.496Z,100130.22
2022-08-25T05:35:20.558Z,100132.94
2022-08-25T05:35:56.546Z,100129.09
2022-08-25T05:36:33.133Z,100125.56
2022-08-25T05:37:12.153Z,100127.47
2022-08-25T05:37:47.741Z,100119.25
2022-08-25T05:38:24.953Z,100128.28
2022-08-25T05:39:01.597Z,100126.38
2022-08-25T05:39:37.820Z,100128.28
2022-08-25T05:40:14.883Z,100120.06
2022-08-25T05:40:52.125Z,100124.75
2022-08-25T05:41:30.208Z,100116.53
2022-08-25T05:42:07.310Z,100118.44
2022-08-25T05:42:44.101Z,100118.44
2022-08-25T05:43:20.748Z,100111.06
2022-08-25T05:43:57.638Z,100117.34
2022-08-25T05:44:34.095Z,100114.59
2022-08-25T05:45:09.891Z,100111.06
2022-08-25T05:45:51.507Z,100112.97
2022-08-25T05:46:28.683Z,100113.78
2022-08-25T05:47:07.241Z,100111.88
2022-08-25T05:47:43.551Z,100114.59
2022-08-25T05:48:20.394Z,100114.59
2022-08-25T05:49:13.785Z,100113.78
2022-08-25T05:50:02.082Z,100115.72
2022-08-25T05:50:59.739Z,100109.13
2022-08-25T05:51:49.204Z,100114.59
2022-08-25T05:52:33.663Z,100112.16
2022-08-25T05:53:19.559Z,100111.06
2022-08-25T05:54:11.589Z,100113.78
2022-08-25T05:55:02.101Z,100108.31
2022-08-25T05:55:46.061Z,100110.25
2022-08-25T05:56:39.995Z,100114.91
2022-08-25T05:57:27.241Z,100106.69
2022-08-25T05:58:17.785Z,100112.97
2022-08-25T05:59:04.977Z,100112.16
2022-08-25T05:59:51.503Z,100115.72
2022-08-25T06:00:37.398Z,100118.44
2022-08-25T06:01:27.578Z,100115.72
2022-08-25T06:02:13.675Z,100112.97
2022-08-25T06:03:05.800Z,100111.34
2022-08-25T06:03:50.566Z,100112.16
2022-08-25T06:04:41.400Z,100107.50
2022-08-25T06:05:26.959Z,100106.69
2022-08-25T06:06:15.985Z,100107.50
2022-08-25T06:07:00.951Z,100103.94
2022-08-25T06:07:52.902Z,100111.06
2022-08-25T06:08:40.771Z,100106.69
2022-08-25T06:09:31.867Z,100102.03
2022-08-25T06:10:15.354Z,100107.50
2022-08-25T06:11:06.044Z,100110.25
2022-08-25T06:11:51.640Z,100107.50
2022-08-25T06:12:43.659Z,100102.03
2022-08-25T06:13:30.428Z,100102.03
2022-08-25T06:14:21.572Z,100102.03
2022-08-25T06:15:06.630Z,100099.28
2022-08-25T06:15:56.329Z,100098.47
2022-08-25T06:16:42.957Z,100103.94
2022-08-25T06:17:33.722Z,100100.41
2022-08-25T06:18:19.584Z,100104.75
2022-08-25T06:19:07.148Z,100100.41
2022-08-25T06:19:49.528Z,100101.53
2022-08-25T06:20:42.465Z,100103.16
2022-08-25T06:21:30.040Z,100102.63
2022-08-25T06:22:19.373Z,100097.16
2022-08-25T06:23:06.138Z,100099.09
2022-08-25T06:24:29.913Z,100099.91
2022-08-25T06:25:24.231Z,100098.78
2022-08-25T06:26:20.598Z,100097.66
2022-08-25T06:27:11.981Z,100097.97
2022-08-25T06:28:01.145Z,100098.78
2022-08-25T06:28:49.388Z,100101.22
2022-08-25T06:29:33.126Z,100105.88
2022-08-25T06:30:24.510Z,100099.91
2022-08-25T06:31:15.016Z,100100.41
2022-08-25T06:32:02.124Z,100102.03
2022-08-25T06:32:49.832Z,100100.41
2022-08-25T06:33:39.042Z,100100.41
2022-08-25T06:34:25.914Z,100101.22
2022-08-25T06:35:12.852Z,100102.31
2022-08-25T06:36:01.920Z,100105.06
2022-08-25T06:36:51.027Z,100103.16
2022-08-25T06:37:39.185Z,100103.16
2022-08-25T06:38:27.771Z,100102.31
2022-08-25T06:39:17.911Z,100103.16
2022-08-25T06:40:09.256Z,100102.03
2022-08-25T06:40:59.142Z,100106.69
2022-08-25T06:41:53.687Z,100103.94
2022-08-25T06:43:01.621Z,100100.41
2022-08-25T06:44:05.004Z,100107.50
2022-08-25T06:44:53.368Z,100106.69
2022-08-25T06:45:37.233Z,100110.25
2022-08-25T06:46:35.814Z,100115.72
2022-08-25T06:47:22.940Z,100112.97
2022-08-25T06:48:13.503Z,100112.16
2022-08-25T06:51:14.048Z,100117.63
2022-08-25T06:52:12.261Z,100112.97
2022-08-25T06:53:10.875Z,100112.16
2022-08-25T06:54:17.555Z,100105.88
2022-08-25T06:55:00.267Z,100107.50
2022-08-25T06:55:56.511Z,100110.25
2022-08-25T06:56:53.062Z,100111.34
2022-08-25T06:57:39.041Z,100107.50
2022-08-25T06:58:23.627Z,100103.94
2022-08-25T07:01:15.737Z,100105.56
2022-08-25T07:02:57.193Z,100104.75
2022-08-25T07:03:52.595Z,100108.31
2022-08-25T07:04:27.135Z,100115.72
2022-08-25T07:05:33.717Z,100110.25
2022-08-25T07:06:33.079Z,100107.50
2022-08-25T07:07:42.934Z,100107.50
2022-08-25T07:08:33.471Z,100108.31
2022-08-25T07:09:19.159Z,100110.25
2022-08-25T07:10:11.014Z,100119.25
2022-08-25T07:10:57.728Z,100112.97
2022-08-25T07:11:51.308Z,100121.19
2022-08-25T07:12:37.168Z,100114.59
2022-08-25T07:13:26.897Z,100114.59
2022-08-25T07:14:12.969Z,100110.25
2022-08-25T07:15:19.280Z,100113.78
2022-08-25T07:16:10.265Z,100111.06
2022-08-25T07:17:15.546Z,100114.59
2022-08-25T07:18:11.877Z,100112.97
2022-08-25T07:19:00.389Z,100122.00
2022-08-25T07:19:48.670Z,100114.59
2022-08-25T07:20:38.671Z,100116.53
2022-08-25T07:21:27.858Z,100120.06
2022-08-25T07:22:19.469Z,100114.59
2022-08-25T07:23:04.247Z,100119.25
2022-08-25T07:23:55.845Z,100117.34
2022-08-25T07:25:02.890Z,100112.97
2022-08-25T07:25:51.210Z,100120.06
2022-08-25T07:26:59.761Z,100119.25
2022-08-25T07:27:49.586Z,100120.06
2022-08-25T07:28:39.198Z,100118.44
2022-08-25T07:29:33.184Z,100122.00
2022-08-25T07:30:19.450Z,100117.34
2022-08-25T07:31:05.399Z,100120.88
2022-08-25T07:31:58.236Z,100119.25
2022-08-25T07:32:48.072Z,100120.06
2022-08-25T07:34:36.972Z,100118.44
2022-08-25T07:35:37.364Z,100117.34
2022-08-25T07:36:24.786Z,100122.81
2022-08-25T07:37:23.790Z,100127.19
2022-08-25T07:38:20.846Z,100121.69
2022-08-25T07:39:10.517Z,100120.88
2022-08-25T07:39:58.644Z,100124.75
2022-08-25T07:40:53.465Z,100120.06
2022-08-25T07:41:52.562Z,100120.06
2022-08-25T07:42:45.196Z,100111.88
2022-08-25T07:43:39.179Z,100117.34
2022-08-25T07:44:30.504Z,100117.34
2022-08-25T07:46:17.914Z,100113.50
2022-08-25T07:47:06.114Z,100114.59
2022-08-25T07:47:54.365Z,100118.16
2022-08-25T07:48:41.538Z,100113.50
2022-08-25T07:49:25.603Z,100112.69
2022-08-25T07:50:12.822Z,100111.88
2022-08-25T07:50:58.999Z,100109.13
2022-08-25T07:52:05.601Z,100113.50
2022-08-25T07:52:55.471Z,100116.22
2022-08-25T07:53:51.404Z,100114.59
2022-08-25T07:54:35.091Z,100107.19
2022-08-25T07:55:47.221Z,100114.59
2022-08-25T07:56:43.912Z,100115.41
2022-08-25T07:57:55.979Z,100115.41
2022-08-25T07:58:52.302Z,100108.31
2022-08-25T08:02:17.766Z,100109.13
2022-08-25T08:05:06.352Z,100100.09
2022-08-25T08:06:04.873Z,100103.66
2022-08-25T08:07:11.933Z,100098.19
2022-08-25T08:08:11.198Z,100093.81
2022-08-25T08:09:17.947Z,100096.25
2022-08-25T08:10:37.063Z,100094.63
2022-08-25T08:11:13.197Z,100090.78
2022-08-25T08:13:09.137Z,100089.97
2022-08-25T08:15:11.310Z,100084.50
2022-08-25T08:16:13.195Z,100087.22
2022-08-25T08:17:06.710Z,100083.38
2022-08-25T08:18:03.811Z,100086.41
2022-08-25T08:20:59.248Z,100081.75
2022-08-25T08:24:44.223Z,100088.84
2022-08-25T08:25:37.954Z,100083.38
2022-08-25T08:27:58.893Z,100089.66
2022-08-25T08:30:10.621Z,100095.94
2022-08-25T08:34:18.604Z,100088.84
2022-08-25T08:35:14.557Z,100088.84
2022-08-25T08:36:18.564Z,100087.72
2022-08-25T08:37:18.149Z,100077.91
2022-08-25T08:41:14.285Z,100082.25
2022-08-25T08:44:20.534Z,100082.25
2022-08-25T08:45:26.055Z,100085.00
2022-08-25T08:46:18.494Z,100077.59
2022-08-25T08:47:25.501Z,100080.34
2022-08-25T08:49:28.035Z,100078.41
2022-08-25T08:53:40.917Z,100068.56
2022-08-25T08:54:36.212Z,100073.22
2022-08-25T08:55:20.765Z,100069.38
2022-08-25T08:56:02.472Z,100066.63
2022-08-25T08:56:52.235Z,100069.38
2022-08-25T08:57:40.901Z,100069.38
2022-08-25T08:58:26.528Z,100058.44
2022-08-25T08:59:13.439Z,100059.25
2022-08-25T09:00:08.563Z,100063.91
2022-08-25T09:01:05.151Z,100059.25
2022-08-25T09:01:53.219Z,100059.25
2022-08-25T09:02:51.620Z,100059.25
2022-08-25T09:03:40.694Z,100058.44
2022-08-25T09:04:32.667Z,100051.03
2022-08-25T09:05:29.045Z,100057.31
2022-08-25T09:06:23.518Z,100049.41
2022-08-25T09:07:16.734Z,100050.22
2022-08-25T09:09:15.464Z,100045.56
2022-08-25T09:10:57.966Z,100051.03
2022-08-25T09:11:48.630Z,100047.16
2022-08-25T09:12:33.542Z,100052.66
2022-08-25T09:13:26.378Z,100051.03
2022-08-25T09:14:14.612Z,100049.09
2022-08-25T09:15:13.052Z,100048.28
2022-08-25T09:16:03.262Z,100049.09
2022-08-25T09:16:48.807Z,100046.38
2022-08-25T09:17:35.353Z,100046.38
2022-08-25T09:18:23.164Z,100044.44
2022-08-25T09:19:21.231Z,100049.09
2022-08-25T09:20:20.799Z,100045.25
2022-08-25T09:21:08.532Z,100040.88
2022-08-25T09:22:35.649Z,100049.91
2022-08-25T09:23:07.554Z,100047.97
2022-08-25T09:24:00.299Z,100043.63
2022-08-25T09:24:46.597Z,100043.63
2022-08-25T09:25:53.215Z,100047.16
2022-08-25T09:26:45.820Z,100047.16
2022-08-25T09:27:31.068Z,100047.16
2022-08-25T09:28:24.583Z,100052.34
2022-08-25T09:30:07.806Z,100046.06
2022-08-25T09:31:01.754Z,100039.78
2022-08-25T09:31:48.236Z,100044.44
2022-08-25T09:32:37.684Z,100050.72
2022-08-25T09:33:23.600Z,100041.69
2022-08-25T09:34:12.414Z,100042.50
2022-08-25T09:34:57.708Z,100037.03
2022-08-25T09:35:46.725Z,100039.78
2022-08-25T09:36:37.536Z,100039.78
2022-08-25T09:37:24.531Z,100039.78
2022-08-25T09:38:08.118Z,100037.03
2022-08-25T09:39:00.676Z,100029.63
2022-08-25T09:39:45.644Z,100033.19
2022-08-25T09:40:35.597Z,100028.00
2022-08-25T09:41:22.895Z,100029.63
2022-08-25T09:42:18.272Z,100026.91
2022-08-25T09:43:13.348Z,100026.91
2022-08-25T09:43:58.594Z,100026.91
2022-08-25T09:44:47.415Z,100030.44
2022-08-25T09:45:35.936Z,100021.41
2022-08-25T09:46:29.028Z,100019.78
2022-08-25T09:47:32.674Z,100019.78
2022-08-25T09:48:29.060Z,100021.41
2022-08-25T09:49:22.709Z,100017.88
2022-08-25T09:50:12.425Z,100018.69
2022-08-25T09:51:02.737Z,100015.94
2022-08-25T09:51:52.664Z,100015.94
2022-08-25T09:52:37.129Z,100003.06
2022-08-25T09:53:29.715Z,100006.91
2022-08-25T09:54:25.487Z,100007.72
2022-08-25T09:55:20.951Z,100007.72
2022-08-25T09:56:31.573Z,100007.72
2022-08-25T09:58:32.150Z,100002.25
2022-08-25T09:59:57.305Z,100002.25
2022-08-25T10:00:48.829Z,100006.09
2022-08-25T10:02:00.310Z,100001.44
2022-08-25T10:03:00.980Z,100001.44
2022-08-25T10:05:41.911Z,99985.00
2022-08-25T10:08:29.061Z,99986.63
2022-08-25T10:11:46.717Z,99985.81
2022-08-25T10:14:31.309Z,99983.91
2022-08-25T10:15:29.868Z,99981.16
2022-08-25T10:16:24.261Z,99970.22
2022-08-25T10:17:09.170Z,99965.84
2022-08-25T10:17:57.604Z,99966.66
2022-08-25T10:19:43.841Z,99970.22
2022-08-25T10:20:38.190Z,99963.09
2022-08-25T10:21:28.012Z,99959.25
2022-08-25T10:22:17.861Z,99976.81
2022-08-25T10:23:06.023Z,99961.19
2022-08-25T10:24:57.233Z,99966.66
2022-08-25T10:25:57.843Z,99958.44
2022-08-25T10:26:46.993Z,99958.44
2022-08-25T10:27:34.053Z,99959.25
2022-08-25T10:28:24.765Z,99955.72
2022-08-25T10:29:15.085Z,99954.59
2022-08-25T10:30:04.590Z,99954.59
2022-08-25T10:30:55.605Z,99951.84